Time;durP1;ratioP1;P1;durP2;ratioP2;P2;SDS_P1;SDS_P2;PMS_P1;PMS_P2;Temp;Humidity;BMP_temperature;BMP_pressure;BME280_temperature;BME280_humidity;BME280_pressure;Samples;Min_cycle;Max_cycle;Signal;HPM_P1;HPM_P2
2022/05/13 00:00:17;;;;;;;5.70;1.87;;;12.10;99.90;;;;;;5095209;28;20204;-89
2022/05/13 00:02:44;;;;;;;7.00;2.00;;;12.00;99.90;;;;;;5095074;28;20201;-89
2022/05/13 00:05:14;;;;;;;6.73;1.60;;;12.10;99.90;;;;;;5095138;28;20211;-89
2022/05/13 00:07:45;;;;;;;7.83;2.10;;;12.20;99.90;;;;;;5095309;28;20205;-90
2022/05/13 00:10:19;;;;;;;11.20;2.47;;;12.20;99.90;;;;;;5095249;28;20209;-90
2022/05/13 00:12:54;;;;;;;12.67;2.90;;;12.10;99.90;;;;;;5095286;28;20204;-90
2022/05/13 00:15:36;;;;;;;11.23;2.47;;;12.10;99.90;;;;;;5094642;28;20232;-90
2022/05/13 00:18:06;;;;;;;7.47;2.30;;;12.00;99.90;;;;;;5095281;28;20212;-89
2022/05/13 00:20:34;;;;;;;5.37;2.00;;;12.00;99.90;;;;;;5095108;28;20185;-88
2022/05/13 00:23:07;;;;;;;14.47;2.00;;;12.00;99.90;;;;;;5094850;28;20201;-88
2022/05/13 00:25:41;;;;;;;9.50;3.30;;;12.10;99.90;;;;;;5094664;28;20196;-87
2022/05/13 00:28:16;;;;;;;9.73;2.00;;;11.90;99.90;;;;;;5094874;28;20201;-88
2022/05/13 00:30:48;;;;;;;8.47;2.20;;;11.90;99.90;;;;;;5095040;28;20205;-87
2022/05/13 00:33:22;;;;;;;5.73;2.00;;;11.90;99.90;;;;;;5094686;28;20231;-88
2022/05/13 00:35:55;;;;;;;7.93;2.20;;;11.80;99.90;;;;;;5094398;28;20676;-91
2022/05/13 00:38:27;;;;;;;8.07;2.43;;;11.80;99.90;;;;;;5094575;28;20561;-88
2022/05/13 00:41:00;;;;;;;11.27;1.80;;;11.70;99.90;;;;;;5094668;28;20216;-87
2022/05/13 00:43:51;;;;;;;7.87;1.83;;;11.70;99.90;;;;;;5094847;28;20197;-90
2022/05/13 00:46:20;;;;;;;8.83;2.17;;;11.70;99.90;;;;;;5094952;28;20231;-90
2022/05/13 00:48:54;;;;;;;8.63;1.83;;;11.60;99.90;;;;;;5094394;28;20205;-90
2022/05/13 00:51:28;;;;;;;9.03;2.03;;;11.50;99.90;;;;;;5094386;28;20211;-91
2022/05/13 00:54:01;;;;;;;12.50;2.30;;;11.50;99.90;;;;;;5094412;28;20216;-90
2022/05/13 00:56:36;;;;;;;9.85;2.72;;;11.60;99.90;;;;;;5093261;28;21262;-90
2022/05/13 00:59:14;;;;;;;8.50;2.40;;;11.70;99.90;;;;;;5094348;28;20607;-90
2022/05/13 01:01:43;;;;;;;6.93;1.93;;;11.70;99.90;;;;;;5094330;28;20573;-91
2022/05/13 01:04:13;;;;;;;7.87;2.20;;;11.60;99.90;;;;;;5094475;28;20201;-91
2022/05/13 01:06:49;;;;;;;5.27;1.90;;;11.40;99.90;;;;;;5094383;28;20190;-90
2022/05/13 01:09:16;;;;;;;8.20;2.00;;;11.50;99.90;;;;;;5094628;28;20200;-91
2022/05/13 01:11:46;;;;;;;10.53;2.10;;;11.40;99.90;;;;;;5093858;28;20664;-90
2022/05/13 01:14:22;;;;;;;7.10;2.43;;;11.50;99.90;;;;;;5094307;28;20197;-91
2022/05/13 01:19:40;;;;;;;11.37;2.40;;;11.30;99.90;;;;;;5094367;28;20191;-91
2022/05/13 01:22:16;;;;;;;8.97;2.63;;;11.30;99.90;;;;;;5093862;28;20201;-91
2022/05/13 01:24:46;;;;;;;9.43;2.23;;;11.30;99.90;;;;;;5094585;28;20213;-90
2022/05/13 01:27:16;;;;;;;10.47;2.03;;;11.40;99.90;;;;;;5094144;28;20201;-90
2022/05/13 01:29:51;;;;;;;7.23;2.40;;;11.50;99.90;;;;;;5093926;28;20550;-90
2022/05/13 01:32:21;;;;;;;7.33;2.50;;;11.40;99.90;;;;;;5094386;28;20291;-91
2022/05/13 01:34:54;;;;;;;8.83;2.80;;;11.50;99.90;;;;;;5093894;28;20216;-90
2022/05/13 01:37:22;;;;;;;9.63;1.97;;;11.60;99.90;;;;;;5090945;28;20208;-91
2022/05/13 01:39:55;;;;;;;11.40;2.45;;;11.60;99.90;;;;;;5094122;28;20385;-90
2022/05/13 01:42:28;;;;;;;6.03;1.70;;;11.70;99.90;;;;;;5093957;28;20197;-90
2022/05/13 01:45:01;;;;;;;10.20;2.10;;;11.60;99.90;;;;;;5094147;28;20197;-90
2022/05/13 01:47:31;;;;;;;7.57;1.90;;;11.50;99.90;;;;;;5094041;28;20485;-91
2022/05/13 01:49:58;;;;;;;9.10;2.27;;;11.40;99.90;;;;;;5093592;28;20212;-91
2022/05/13 01:52:26;;;;;;;9.67;2.50;;;11.30;99.90;;;;;;5093955;28;20201;-90
2022/05/13 01:54:56;;;;;;;12.67;2.50;;;11.30;99.90;;;;;;5093558;28;20644;-90
2022/05/13 01:57:26;;;;;;;6.50;2.03;;;11.20;99.90;;;;;;5094130;28;20201;-91
2022/05/13 01:59:55;;;;;;;10.63;2.37;;;11.20;99.90;;;;;;5095883;28;20212;-91
2022/05/13 02:02:23;;;;;;;10.67;2.50;;;11.20;99.90;;;;;;5097196;28;20232;-90
2022/05/13 02:04:55;;;;;;;10.80;2.90;;;11.20;99.90;;;;;;5097157;28;20216;-90
2022/05/13 02:07:23;;;;;;;11.23;2.67;;;11.20;99.90;;;;;;5097472;28;20197;-91
2022/05/13 02:10:01;;;;;;;10.87;2.10;;;11.10;99.90;;;;;;5097253;28;20205;-90
2022/05/13 02:12:34;;;;;;;11.10;2.27;;;11.20;99.90;;;;;;5097251;28;20580;-90
2022/05/13 02:15:08;;;;;;;12.03;2.53;;;11.30;99.90;;;;;;5097316;28;20208;-91
2022/05/13 02:17:37;;;;;;;9.60;2.63;;;11.30;99.90;;;;;;5096939;28;20205;-90
2022/05/13 02:20:15;;;;;;;8.40;2.27;;;11.30;99.90;;;;;;5097074;28;20193;-91
2022/05/13 02:22:43;;;;;;;10.03;2.73;;;11.20;99.90;;;;;;5097382;28;20193;-91
2022/05/13 02:25:17;;;;;;;10.00;2.50;;;11.00;99.90;;;;;;5096992;28;20205;-90
2022/05/13 02:27:50;;;;;;;12.05;3.30;;;11.10;99.90;;;;;;5096166;28;20879;-91
2022/05/13 02:30:21;;;;;;;10.23;2.60;;;11.10;99.90;;;;;;5095817;28;20212;-90
2022/05/13 02:32:52;;;;;;;14.27;3.03;;;11.20;99.90;;;;;;5096423;28;20265;-90
2022/05/13 02:35:25;;;;;;;15.37;2.83;;;11.10;99.90;;;;;;5096804;28;20225;-90
2022/05/13 02:37:53;;;;;;;11.23;2.60;;;11.10;99.90;;;;;;5096852;28;20216;-90
2022/05/13 02:43:26;;;;;;;8.33;2.70;;;11.00;99.90;;;;;;5096714;28;20184;-91
2022/05/13 02:45:54;;;;;;;12.17;3.17;;;10.90;99.90;;;;;;5097243;28;20240;-90
2022/05/13 02:48:27;;;;;;;15.00;3.17;;;10.90;99.90;;;;;;5096911;28;20205;-90
2022/05/13 02:50:55;;;;;;;16.30;4.20;;;10.90;99.90;;;;;;5096824;28;20211;-90
2022/05/13 02:53:23;;;;;;;10.43;3.83;;;10.90;99.90;;;;;;5096472;28;20220;-91
2022/05/13 02:55:52;;;;;;;12.33;3.93;;;10.90;99.90;;;;;;5096536;28;20236;-90
2022/05/13 02:58:20;;;;;;;17.43;4.70;;;10.80;99.90;;;;;;5096499;28;20272;-91
2022/05/13 03:00:47;;;;;;;17.47;4.33;;;10.90;99.90;;;;;;5096380;28;20641;-91
2022/05/13 03:03:20;;;;;;;11.67;4.93;;;10.90;99.90;;;;;;5096210;28;20197;-91
2022/05/13 03:05:49;;;;;;;14.47;3.80;;;10.90;99.90;;;;;;5096092;28;20201;-90
2022/05/13 03:08:19;;;;;;;9.60;3.00;;;10.90;99.90;;;;;;5096386;28;20208;-91
2022/05/13 03:10:47;;;;;;;11.60;3.03;;;11.00;99.90;;;;;;5096725;28;20238;-91
2022/05/13 03:13:25;;;;;;;13.65;3.33;;;11.00;99.90;;;;;;5096136;28;20431;-91
2022/05/13 03:15:54;;;;;;;12.97;3.30;;;10.90;99.90;;;;;;5095939;28;20227;-90
2022/05/13 03:18:28;;;;;;;8.30;2.87;;;10.90;99.90;;;;;;5095968;28;20204;-91
2022/05/13 03:20:58;;;;;;;12.50;3.60;;;10.90;99.90;;;;;;5096009;28;20235;-91
2022/05/13 03:23:28;;;;;;;12.80;3.00;;;11.00;99.90;;;;;;5095900;28;20208;-90
2022/05/13 03:25:56;;;;;;;10.20;3.33;;;11.10;99.90;;;;;;5096144;28;20296;-90
2022/05/13 03:28:27;;;;;;;6.70;2.90;;;11.10;99.90;;;;;;5095800;28;20216;-91
2022/05/13 03:30:54;;;;;;;11.63;3.30;;;11.20;99.90;;;;;;5095547;28;20205;-90
2022/05/13 03:33:24;;;;;;;13.90;2.97;;;11.30;99.90;;;;;;5095650;28;20232;-90
2022/05/13 03:35:57;;;;;;;13.57;3.38;;;11.20;99.90;;;;;;5095380;28;20426;-90
2022/05/13 03:38:24;;;;;;;12.10;3.43;;;11.10;99.90;;;;;;5095793;28;20205;-91
2022/05/13 03:40:54;;;;;;;12.00;3.07;;;11.20;99.90;;;;;;5095678;28;20211;-90
2022/05/13 03:43:28;;;;;;;12.97;3.90;;;11.20;99.90;;;;;;5095821;28;20205;-90
2022/05/13 03:45:55;;;;;;;16.93;3.57;;;11.20;99.90;;;;;;5095260;28;20215;-90
2022/05/13 03:48:22;;;;;;;8.47;2.70;;;11.30;99.90;;;;;;5095521;28;20564;-91
2022/05/13 03:50:49;;;;;;;12.10;2.97;;;11.30;99.90;;;;;;5095704;28;20240;-91
2022/05/13 03:53:19;;;;;;;10.40;3.27;;;11.30;99.90;;;;;;5095493;28;20197;-90
2022/05/13 03:55:52;;;;;;;10.20;3.17;;;11.40;99.90;;;;;;5095127;28;20588;-90
2022/05/13 03:58:21;;;;;;;12.80;3.50;;;11.40;99.90;;;;;;5095164;28;20578;-90
2022/05/13 04:00:53;;;;;;;15.60;4.28;;;11.40;99.90;;;;;;5094041;28;20783;-91
2022/05/13 04:03:25;;;;;;;38.63;4.83;;;11.30;99.90;;;;;;5095259;28;20213;-91
2022/05/13 04:08:57;;;;;;;12.60;3.43;;;11.20;99.90;;;;;;5094955;28;20564;-91
2022/05/13 04:11:32;;;;;;;12.00;3.50;;;11.20;99.90;;;;;;5095187;28;20201;-90
2022/05/13 04:17:02;;;;;;;11.33;3.07;;;11.30;99.90;;;;;;5095085;28;20212;-89
2022/05/13 04:19:34;;;;;;;17.67;4.07;;;11.20;99.90;;;;;;5094608;28;20672;-90
2022/05/13 04:22:01;;;;;;;15.70;3.57;;;11.20;99.90;;;;;;5094822;28;20201;-90
2022/05/13 04:24:46;;;;;;;11.00;3.90;;;11.10;99.90;;;;;;5095227;28;20200;-90
2022/05/13 04:27:14;;;;;;;12.17;3.40;;;11.10;99.90;;;;;;5095087;28;20201;-90
2022/05/13 04:29:47;;;;;;;12.07;3.43;;;11.00;99.90;;;;;;5094798;28;20197;-91
2022/05/13 04:32:17;;;;;;;16.97;3.90;;;11.00;99.90;;;;;;5094909;28;20205;-90
2022/05/13 04:34:50;;;;;;;14.90;3.50;;;10.90;99.90;;;;;;5094866;28;20205;-90
2022/05/13 04:37:17;;;;;;;13.60;3.57;;;10.90;99.90;;;;;;5094746;28;20229;-87
2022/05/13 04:39:52;;;;;;;17.43;4.43;;;10.90;99.90;;;;;;5094709;28;20207;-90
2022/05/13 04:45:12;;;;;;;15.03;4.10;;;10.90;99.90;;;;;;5068689;28;20212;-90
2022/05/13 04:50:33;;;;;;;12.20;3.70;;;11.10;99.90;;;;;;5095042;28;20200;-91
2022/05/13 04:53:00;;;;;;;13.33;4.33;;;10.90;99.90;;;;;;5094919;28;20223;-91
2022/05/13 04:55:27;;;;;;;13.30;4.40;;;11.00;99.90;;;;;;5094957;28;20316;-90
2022/05/13 04:57:54;;;;;;;15.53;4.30;;;11.10;99.90;;;;;;5094393;28;20232;-90
2022/05/13 05:00:21;;;;;;;12.80;5.00;;;11.20;99.90;;;;;;5092449;28;20201;-90
2022/05/13 05:02:50;;;;;;;12.13;4.87;;;11.30;99.90;;;;;;5091824;28;20213;-91
2022/05/13 05:05:17;;;;;;;17.87;4.57;;;11.30;99.90;;;;;;5093241;28;20201;-88
2022/05/13 05:07:44;;;;;;;15.43;4.80;;;11.30;99.90;;;;;;5094320;28;20205;-90
2022/05/13 05:10:14;;;;;;;14.68;4.78;;;11.30;99.90;;;;;;5094762;28;20898;-90
2022/05/13 05:12:41;;;;;;;15.00;5.03;;;11.40;99.90;;;;;;5093682;28;20213;-91
2022/05/13 05:15:11;;;;;;;11.57;4.30;;;11.30;99.90;;;;;;5093377;28;20201;-90
2022/05/13 05:17:44;;;;;;;13.53;4.30;;;11.40;99.90;;;;;;5093786;28;20232;-90
2022/05/13 05:20:14;;;;;;;16.77;4.77;;;11.30;99.90;;;;;;5094379;28;20590;-90
2022/05/13 05:22:47;;;;;;;13.63;4.30;;;11.40;99.90;;;;;;5093924;28;20575;-90
2022/05/13 05:25:16;;;;;;;13.13;4.17;;;11.40;99.90;;;;;;5094071;28;20648;-86
2022/05/13 05:27:49;;;;;;;10.10;4.30;;;11.50;99.90;;;;;;5094254;28;20209;-90
2022/05/13 05:30:17;;;;;;;12.40;4.13;;;11.50;99.90;;;;;;5094044;28;20189;-90
2022/05/13 05:32:44;;;;;;;18.70;4.37;;;11.70;99.90;;;;;;5094061;28;20594;-91
2022/05/13 05:35:24;;;;;;;19.70;5.10;;;11.60;99.90;;;;;;5096976;28;20241;-90
2022/05/13 05:37:57;;;;;;;14.43;4.87;;;11.60;99.90;;;;;;5098056;28;20228;-90
2022/05/13 05:40:27;;;;;;;18.30;4.93;;;11.60;99.90;;;;;;5098170;28;20204;-90
2022/05/13 05:42:54;;;;;;;19.43;4.90;;;11.70;99.90;;;;;;5097929;28;20205;-91
2022/05/13 05:45:23;;;;;;;19.00;4.33;;;11.80;99.90;;;;;;5097797;28;20205;-90
2022/05/13 05:47:56;;;;;;;19.30;4.77;;;11.90;99.90;;;;;;5097844;28;20209;-90
2022/05/13 05:50:31;;;;;;;15.17;4.40;;;11.80;99.90;;;;;;5097960;28;20201;-90
2022/05/13 05:53:03;;;;;;;14.10;3.87;;;11.90;99.90;;;;;;5098008;28;20216;-89
2022/05/13 05:58:19;;;;;;;15.60;4.27;;;11.80;99.90;;;;;;5097586;28;20224;-90
2022/05/13 06:00:53;;;;;;;18.83;4.87;;;12.00;99.90;;;;;;5097371;28;20201;-90
2022/05/13 06:03:21;;;;;;;16.90;4.80;;;12.00;99.90;;;;;;5098012;28;20205;-90
2022/05/13 06:06:00;;;;;;;21.20;4.77;;;12.10;99.90;;;;;;5097253;28;20197;-89
2022/05/13 06:08:33;;;;;;;146.93;10.97;;;12.10;99.90;;;;;;5097180;28;20656;-91
2022/05/13 06:11:06;;;;;;;13.90;4.03;;;12.20;99.90;;;;;;5097098;28;20205;-91
2022/05/13 06:13:34;;;;;;;14.00;3.93;;;12.30;99.90;;;;;;5098088;28;20209;-90
2022/05/13 06:16:04;;;;;;;14.37;4.07;;;12.30;99.90;;;;;;5098010;28;20209;-89
2022/05/13 06:18:31;;;;;;;13.50;3.83;;;12.30;99.90;;;;;;5097199;28;20223;-91
2022/05/13 06:21:00;;;;;;;15.10;4.10;;;12.20;99.90;;;;;;5096762;28;20648;-88
2022/05/13 06:23:35;;;;;;;15.67;4.00;;;12.40;99.90;;;;;;5096884;28;20194;-90
2022/05/13 06:26:02;;;;;;;15.27;3.80;;;12.40;99.90;;;;;;5096512;28;20219;-91
2022/05/13 06:28:30;;;;;;;14.30;3.77;;;12.50;99.90;;;;;;5096396;28;20683;-90
2022/05/13 06:30:57;;;;;;;13.23;3.40;;;12.50;99.90;;;;;;5096349;28;20205;-90
2022/05/13 06:33:24;;;;;;;13.77;3.77;;;12.50;99.90;;;;;;5096426;28;20228;-90
2022/05/13 06:35:52;;;;;;;16.23;4.43;;;12.50;99.90;;;;;;5096020;28;20193;-90
2022/05/13 06:38:22;;;;;;;14.40;4.27;;;12.60;99.90;;;;;;5095038;28;20236;-91
2022/05/13 06:40:50;;;;;;;9.03;3.70;;;12.50;99.90;;;;;;5096237;28;20201;-92
2022/05/13 06:43:17;;;;;;;13.33;3.97;;;12.60;99.90;;;;;;5096947;28;20212;-92
2022/05/13 06:45:44;;;;;;;9.80;3.60;;;12.70;99.90;;;;;;5096125;28;20208;-89
2022/05/13 06:48:13;;;;;;;10.87;3.37;;;12.70;99.90;;;;;;5096894;28;20213;-91
2022/05/13 06:50:43;;;;;;;13.90;3.23;;;12.70;99.90;;;;;;5096821;28;20209;-92
2022/05/13 06:53:10;;;;;;;14.13;3.50;;;12.80;99.90;;;;;;5095083;28;20219;-89
2022/05/13 06:55:39;;;;;;;9.20;3.83;;;12.90;99.90;;;;;;5095514;28;20691;-90
2022/05/13 06:58:06;;;;;;;9.50;2.97;;;13.00;99.90;;;;;;5093671;28;20700;-90
2022/05/13 07:00:33;;;;;;;8.90;3.27;;;13.00;99.90;;;;;;5095995;28;20212;-90
2022/05/13 07:02:59;;;;;;;12.20;2.87;;;13.10;99.90;;;;;;5095903;28;20189;-90
2022/05/13 07:05:27;;;;;;;15.63;3.60;;;13.10;99.90;;;;;;5096377;28;20672;-92
2022/05/13 07:07:53;;;;;;;11.97;2.77;;;13.10;99.90;;;;;;5096100;28;20233;-91
2022/05/13 07:10:21;;;;;;;11.30;3.75;;;13.20;99.90;;;;;;5094572;28;20438;-90
2022/05/13 07:12:49;;;;;;;9.03;3.63;;;13.40;99.90;;;;;;5096202;28;20686;-92
2022/05/13 07:15:19;;;;;;;12.83;3.40;;;13.40;99.90;;;;;;5096064;28;20205;-93
2022/05/13 07:17:46;;;;;;;10.20;3.43;;;13.50;99.90;;;;;;5096161;28;20217;-94
2022/05/13 07:20:14;;;;;;;11.23;3.57;;;13.50;99.90;;;;;;5096066;28;20210;-94
2022/05/13 07:22:41;;;;;;;11.40;3.03;;;13.40;99.90;;;;;;5094765;28;20194;-94
2022/05/13 07:25:08;;;;;;;9.83;2.90;;;13.50;99.90;;;;;;5095054;28;20199;-91
2022/05/13 07:27:35;;;;;;;10.53;3.30;;;13.50;99.90;;;;;;5095755;28;20549;-93
2022/05/13 07:30:04;;;;;;;9.93;2.50;;;13.60;99.90;;;;;;5095611;28;20190;-94
2022/05/13 07:32:31;;;;;;;7.47;2.77;;;13.70;99.90;;;;;;5098582;28;20213;-88
2022/05/13 07:34:58;;;;;;;10.17;2.50;;;13.80;99.90;;;;;;5095352;28;20210;-89
2022/05/13 07:37:25;;;;;;;10.77;2.97;;;13.90;99.90;;;;;;5094934;28;20262;-89
2022/05/13 07:42:36;;;;;;;10.00;2.70;;;13.90;99.90;;;;;;5095772;28;20608;-90
2022/05/13 07:45:06;;;;;;;10.60;3.20;;;14.00;99.90;;;;;;5095391;28;20223;-91
2022/05/13 07:47:33;;;;;;;8.87;2.70;;;14.10;99.90;;;;;;5094684;28;20271;-93
2022/05/13 07:50:00;;;;;;;9.90;2.63;;;14.10;99.90;;;;;;5098249;28;20208;-92
2022/05/13 07:52:27;;;;;;;6.20;1.83;;;14.10;99.90;;;;;;5100618;28;20207;-91
2022/05/13 07:54:54;;;;;;;7.10;2.60;;;14.20;99.90;;;;;;5100136;28;20216;-89
2022/05/13 07:57:21;;;;;;;10.80;2.70;;;14.20;99.90;;;;;;5131718;27;20438;-93
2022/05/13 08:02:34;;;;;;;12.80;2.23;;;14.50;99.90;;;;;;5110481;28;20227;-91
2022/05/13 08:05:01;;;;;;;8.10;2.33;;;14.70;99.90;;;;;;5107364;28;20545;-92
2022/05/13 08:07:28;;;;;;;7.93;2.50;;;14.50;99.90;;;;;;5107957;28;20200;-89
2022/05/13 08:09:56;;;;;;;8.77;2.23;;;14.50;99.90;;;;;;5106844;28;20199;-89
2022/05/13 08:12:22;;;;;;;7.13;2.00;;;14.60;99.90;;;;;;5122379;28;20207;-90
2022/05/13 08:14:49;;;;;;;9.27;2.40;;;14.70;99.90;;;;;;5103905;28;20192;-89
2022/05/13 08:17:16;;;;;;;8.17;2.40;;;14.60;99.90;;;;;;5103942;28;20232;-89
2022/05/13 08:19:44;;;;;;;12.13;2.42;;;14.90;99.90;;;;;;5103352;28;20513;-92
2022/05/13 08:22:11;;;;;;;7.90;2.40;;;15.00;99.90;;;;;;5101229;28;20220;-89
2022/05/13 08:24:38;;;;;;;6.67;2.00;;;15.20;99.90;;;;;;5094290;28;20212;-88
2022/05/13 08:27:05;;;;;;;4.07;2.03;;;15.30;99.90;;;;;;5127207;27;20209;-89
2022/05/13 08:29:32;;;;;;;7.80;1.77;;;15.40;99.90;;;;;;5094965;28;20209;-88
2022/05/13 08:32:01;;;;;;;7.63;2.10;;;15.50;99.90;;;;;;5094546;28;20208;-89
2022/05/13 08:34:28;;;;;;;11.53;2.47;;;15.80;99.90;;;;;;5093900;28;20221;-89
2022/05/13 08:36:56;;;;;;;5.57;1.83;;;15.70;99.90;;;;;;5093667;28;20217;-91
2022/05/13 08:39:23;;;;;;;5.40;1.80;;;15.60;99.90;;;;;;5093940;28;20201;-91
2022/05/13 08:42:01;;;;;;;5.20;1.70;;;15.60;99.90;;;;;;5093828;28;20208;-89
2022/05/13 08:44:28;;;;;;;3.93;1.47;;;15.50;99.90;;;;;;5094684;28;20213;-92
2022/05/13 08:46:58;;;;;;;9.13;1.57;;;15.40;99.90;;;;;;5095183;28;20209;-91
2022/05/13 08:49:34;;;;;;;8.23;1.60;;;15.60;99.90;;;;;;5095316;28;20668;-89
2022/05/13 08:55:11;;;;;;;9.00;1.90;;;15.80;99.90;;;;;;5068172;28;20205;-91
2022/05/13 08:57:42;;;;;;;7.33;2.37;;;15.80;99.90;;;;;;5094354;28;20224;-88
2022/05/13 09:00:13;;;;;;;6.80;2.13;;;15.90;99.90;;;;;;5095025;28;20211;-86
2022/05/13 09:02:42;;;;;;;5.53;1.87;;;15.90;99.90;;;;;;5095822;28;20258;-89
2022/05/13 09:05:21;;;;;;;7.27;2.13;;;16.00;99.90;;;;;;5093728;28;20201;-88
2022/05/13 09:07:51;;;;;;;8.67;1.80;;;16.10;99.90;;;;;;5094278;28;20209;-87
2022/05/13 09:10:18;;;;;;;7.27;2.30;;;16.00;99.90;;;;;;5098454;28;20224;-86
2022/05/13 09:12:51;;;;;;;6.23;1.70;;;16.00;99.90;;;;;;5098472;28;20197;-89
2022/05/13 09:15:22;;;;;;;7.47;1.63;;;16.20;99.90;;;;;;5098033;28;20229;-85
2022/05/13 09:18:01;;;;;;;4.40;1.70;;;16.50;99.90;;;;;;5097401;28;20220;-84
2022/05/13 09:20:28;;;;;;;4.73;1.53;;;17.00;99.90;;;;;;5097346;28;20202;-89
2022/05/13 09:22:59;;;;;;;5.10;1.73;;;17.40;99.90;;;;;;5097213;28;20202;-87
2022/05/13 09:25:35;;;;;;;6.07;2.13;;;17.20;99.90;;;;;;5097676;28;20235;-83
2022/05/13 09:28:09;;;;;;;18.93;2.87;;;17.10;99.90;;;;;;5096831;28;20210;-82
2022/05/13 09:30:38;;;;;;;5.90;1.80;;;17.10;99.90;;;;;;5097333;28;20208;-83
2022/05/13 09:33:22;;;;;;;5.70;1.80;;;17.10;99.90;;;;;;5096712;28;20227;-82
2022/05/13 09:35:51;;;;;;;5.77;1.90;;;16.80;99.90;;;;;;5097009;28;20699;-83
2022/05/13 09:38:24;;;;;;;29.53;3.37;;;16.90;99.90;;;;;;5096949;28;20235;-84
2022/05/13 09:40:59;;;;;;;7.13;1.87;;;16.80;99.90;;;;;;5097129;28;20211;-84
2022/05/13 09:43:37;;;;;;;4.13;2.03;;;16.60;99.90;;;;;;5097044;28;20206;-84
2022/05/13 09:46:07;;;;;;;8.60;2.10;;;16.40;99.90;;;;;;5097082;28;20255;-83
2022/05/13 09:48:36;;;;;;;4.63;2.03;;;16.50;99.90;;;;;;5096705;28;20203;-83
2022/05/13 09:51:23;;;;;;;7.63;2.13;;;16.50;99.90;;;;;;5096604;28;20208;-83
2022/05/13 09:54:13;;;;;;;19.50;2.77;;;16.80;99.90;;;;;;5096589;28;20215;-85
2022/05/13 09:56:45;;;;;;;3.40;1.70;;;16.70;99.90;;;;;;5096455;28;20207;-83
2022/05/13 09:59:17;;;;;;;3.33;1.70;;;16.90;99.90;;;;;;5096383;28;20235;-83
2022/05/13 10:01:44;;;;;;;4.50;1.80;;;17.00;99.90;;;;;;5096628;28;20251;-83
2022/05/13 10:04:13;;;;;;;5.77;1.93;;;16.80;99.90;;;;;;5096402;28;20294;-81
2022/05/13 10:06:41;;;;;;;3.53;1.80;;;17.00;99.90;;;;;;5096394;28;20199;-82
2022/05/13 10:15:13;;;;;;;5.60;1.77;;;16.90;99.90;;;;;;5096493;28;20210;-84
2022/05/13 10:17:48;;;;;;;8.07;2.17;;;16.70;99.90;;;;;;5096040;28;20227;-84
2022/05/13 10:20:27;;;;;;;6.03;1.67;;;16.50;99.90;;;;;;5095546;28;20201;-83
2022/05/13 10:23:00;;;;;;;8.07;1.97;;;16.60;99.90;;;;;;5095782;28;20199;-85
2022/05/13 10:25:35;;;;;;;4.83;2.00;;;16.70;99.90;;;;;;5096146;28;20212;-84
2022/05/13 10:28:07;;;;;;;23.87;2.53;;;16.90;99.90;;;;;;5095733;28;20579;-84
2022/05/13 10:30:40;;;;;;;5.70;1.93;;;17.00;99.90;;;;;;5096295;28;20239;-83
2022/05/13 10:33:11;;;;;;;4.47;1.90;;;17.10;99.90;;;;;;5095264;28;20678;-82
2022/05/13 10:35:46;;;;;;;7.33;2.57;;;17.10;99.90;;;;;;5095880;28;20207;-82
2022/05/13 10:38:20;;;;;;;4.63;1.50;;;17.20;99.90;;;;;;5095756;28;20578;-84
2022/05/13 10:40:49;;;;;;;5.97;1.70;;;17.20;99.90;;;;;;5095776;28;20196;-83
2022/05/13 10:43:20;;;;;;;7.03;1.90;;;17.00;99.90;;;;;;5095700;28;20442;-83
2022/05/13 10:45:49;;;;;;;8.23;2.00;;;17.00;99.90;;;;;;5095306;28;20210;-83
2022/05/13 10:48:27;;;;;;;4.33;1.67;;;17.10;99.90;;;;;;5095540;28;20207;-83
2022/05/13 10:51:09;;;;;;;7.13;1.97;;;17.00;99.90;;;;;;5095763;28;20203;-86
2022/05/13 10:53:52;;;;;;;7.27;1.70;;;17.10;99.90;;;;;;5096168;28;20261;-86
2022/05/13 10:56:25;;;;;;;7.67;2.13;;;17.30;99.90;;;;;;5096219;28;20201;-85
2022/05/13 10:59:01;;;;;;;4.33;1.70;;;17.30;99.90;;;;;;5095654;28;20598;-85
2022/05/13 11:01:40;;;;;;;7.00;2.00;;;17.30;99.90;;;;;;5095575;28;20200;-85
2022/05/13 11:04:15;;;;;;;5.83;2.03;;;17.20;99.90;;;;;;5095656;28;20302;-85
2022/05/13 11:07:01;;;;;;;5.63;1.70;;;17.30;99.90;;;;;;5095585;28;20205;-85
2022/05/13 11:09:37;;;;;;;6.68;2.20;;;17.50;99.90;;;;;;5094543;28;20433;-88
2022/05/13 11:12:12;;;;;;;4.50;1.60;;;17.80;99.90;;;;;;5095606;28;20196;-88
2022/05/13 11:14:53;;;;;;;7.27;1.70;;;17.90;99.90;;;;;;5095291;28;20212;-90
2022/05/13 11:17:31;;;;;;;5.67;1.80;;;17.90;99.90;;;;;;5096212;28;20209;-89
2022/05/13 11:20:07;;;;;;;5.33;1.50;;;17.70;99.90;;;;;;5096445;28;20217;-89
2022/05/13 11:22:38;;;;;;;4.60;1.37;;;17.80;99.90;;;;;;5095968;28;20222;-86
2022/05/13 11:28:33;;;;;;;6.30;1.67;;;17.80;99.90;;;;;;5095331;28;20220;-87
2022/05/13 11:31:09;;;;;;;37.77;4.30;;;17.90;99.90;;;;;;5094647;28;20217;-85
2022/05/13 11:33:42;;;;;;;7.30;1.70;;;18.00;99.90;;;;;;5094764;28;20223;-89
2022/05/13 11:36:29;;;;;;;6.37;1.80;;;18.00;99.90;;;;;;5095188;28;20201;-85
2022/05/13 11:39:27;;;;;;;17.37;2.20;;;18.00;99.90;;;;;;5095102;28;20225;-86
2022/05/13 11:42:06;;;;;;;3.50;1.93;;;18.40;99.90;;;;;;5095165;28;20212;-86
2022/05/13 11:44:50;;;;;;;8.00;1.97;;;18.70;99.90;;;;;;5094572;28;20208;-84
2022/05/13 11:47:23;;;;;;;4.87;1.70;;;18.80;99.90;;;;;;5094721;28;20193;-83
2022/05/13 11:49:51;;;;;;;5.97;1.70;;;18.70;99.90;;;;;;5094505;28;20222;-84
2022/05/13 11:52:42;;;;;;;7.27;1.53;;;18.30;99.90;;;;;;5095024;28;20203;-86
2022/05/13 11:55:17;;;;;;;5.45;1.75;;;18.40;99.90;;;;;;5093969;28;20434;-84
2022/05/13 11:57:45;;;;;;;4.20;1.50;;;18.40;99.90;;;;;;5094439;28;20288;-86
2022/05/13 12:00:37;;;;;;;5.40;1.90;;;18.40;99.90;;;;;;5094079;28;20245;-84
2022/05/13 12:03:16;;;;;;;4.40;1.40;;;18.80;99.90;;;;;;5094806;28;20198;-86
2022/05/13 12:05:58;;;;;;;4.03;1.63;;;18.80;99.90;;;;;;5092132;28;20205;-83
2022/05/13 12:08:31;;;;;;;2.33;1.20;;;18.70;99.90;;;;;;5081592;28;20210;-85
2022/05/13 12:11:36;;;;;;;4.40;1.60;;;18.60;99.90;;;;;;5092254;28;20197;-85
2022/05/13 12:14:19;;;;;;;27.67;2.60;;;18.60;99.90;;;;;;5094399;28;20276;-86
2022/05/13 12:17:00;;;;;;;12.77;2.37;;;18.80;99.90;;;;;;5094984;28;20196;-86
2022/05/13 12:19:39;;;;;;;5.17;1.70;;;18.90;99.90;;;;;;5094464;28;20203;-85
2022/05/13 12:22:14;;;;;;;5.23;1.53;;;19.10;99.90;;;;;;5095198;28;20191;-83
2022/05/13 12:25:02;;;;;;;4.37;1.50;;;19.40;99.90;;;;;;5097369;28;20187;-86
2022/05/13 12:27:37;;;;;;;4.20;1.30;;;19.50;99.90;;;;;;5097516;28;20640;-87
2022/05/13 12:30:30;;;;;;;11.73;2.07;;;19.60;99.90;;;;;;5094513;28;20665;-84
2022/05/13 12:33:19;;;;;;;6.37;1.63;;;19.30;99.90;;;;;;5094555;28;20230;-84
2022/05/13 12:39:12;;;;;;;3.57;1.50;;;18.90;99.90;;;;;;5094098;28;20226;-87
2022/05/13 12:41:54;;;;;;;3.43;1.50;;;19.20;99.90;;;;;;5093897;28;20210;-87
2022/05/13 12:44:34;;;;;;;4.75;1.50;;;19.50;99.90;;;;;;5092805;28;20458;-86
2022/05/13 12:47:26;;;;;;;4.47;1.50;;;19.70;99.90;;;;;;5093811;28;20199;-86
2022/05/13 12:49:59;;;;;;;3.53;1.57;;;19.90;99.90;;;;;;5091676;28;20202;-85
2022/05/13 12:52:37;;;;;;;5.87;2.03;;;20.00;99.90;;;;;;5094049;28;20212;-85
2022/05/13 12:55:10;;;;;;;4.40;1.60;;;19.60;99.90;;;;;;5093879;28;20846;-84
2022/05/13 12:57:43;;;;;;;3.97;1.20;;;19.20;99.90;;;;;;5093591;28;21129;-87
2022/05/13 13:00:13;;;;;;;3.03;1.43;;;19.20;99.90;;;;;;5093454;28;20325;-84
2022/05/13 13:02:42;;;;;;;6.17;1.57;;;19.30;99.90;;;;;;5093374;28;20204;-84
2022/05/13 13:05:14;;;;;;;4.80;1.80;;;19.40;99.90;;;;;;5093479;28;20211;-84
2022/05/13 13:07:41;;;;;;;5.38;1.70;;;19.50;99.90;;;;;;5092919;28;20430;-83
2022/05/13 13:10:10;;;;;;;5.03;2.00;;;19.60;99.90;;;;;;5093487;28;20215;-84
2022/05/13 13:12:43;;;;;;;4.63;1.57;;;19.90;99.90;;;;;;5092419;28;20275;-84
2022/05/13 13:15:18;;;;;;;7.20;2.10;;;20.10;99.90;;;;;;5093445;28;20203;-83
2022/05/13 13:17:48;;;;;;;6.77;1.87;;;20.30;99.90;;;;;;5092855;28;20201;-85
2022/05/13 13:20:17;;;;;;;3.33;1.43;;;19.80;99.90;;;;;;5092856;28;20228;-86
2022/05/13 13:22:50;;;;;;;5.33;1.60;;;19.50;99.90;;;;;;5093335;28;20535;-86
2022/05/13 13:25:26;;;;;;;5.97;1.87;;;19.50;99.90;;;;;;5092939;28;20217;-86
2022/05/13 13:27:58;;;;;;;5.30;1.57;;;19.70;99.90;;;;;;5092937;28;20198;-86
2022/05/13 13:30:25;;;;;;;4.90;1.40;;;19.90;99.90;;;;;;5093652;28;20215;-85
2022/05/13 13:32:53;;;;;;;6.17;2.00;;;20.00;99.90;;;;;;5092447;28;20228;-88
2022/05/13 13:35:35;;;;;;;6.53;1.67;;;20.00;99.90;;;;;;5093912;28;20290;-83
2022/05/13 13:38:04;;;;;;;6.90;2.00;;;20.10;99.90;;;;;;5089826;28;20205;-86
2022/05/13 13:40:35;;;;;;;8.43;1.70;;;20.30;99.90;;;;;;5092659;28;20694;-84
2022/05/13 13:43:15;;;;;;;3.23;1.50;;;20.50;99.90;;;;;;5085006;28;20282;-83
2022/05/13 13:45:47;;;;;;;7.07;1.50;;;20.80;99.90;;;;;;5092973;28;20209;-84
2022/05/13 13:48:27;;;;;;;4.87;1.47;;;21.30;99.90;;;;;;5093341;28;20211;-85